Terminal Aerodrome Forecast
Issued by NWS

Home | Current Version | Previous Version | Text Only | Print | Product List | Glossary On
Versions: 1 2 3 4 5 6 7 8 9 10 11 12 13 14 15 16 17 18 19 20 21 22 23 24
785
FTUS43 KSGF 211328 AAA
TAFBBG
TAF AMD
KBBG 211328Z 2113/2212 VRB02KT P6SM BKN006
     FM211600 35005KT P6SM OVC015
     FM212000 34007KT P6SM BKN040
     FM220600 00000KT 5SM BR FEW140
     FM220900 00000KT 3/4SM BR SCT040=

USA.gov is the U.S. government's official web portal to all federal, state and local government web resources and services.